Garden City, GA (31418)

3:51 AM EST on February 07, 2016 (GMT -0500)
Sangrena-Pooler | | Change Station
CLOSE
Current Station
Personal Weather Station
Location: Pooler, GA
Elevation: 26 ft
Nearby Weather Stations
Active Advisory: Flood Warning

Elev 26 ft 32.13 °N, 81.27 °W | Updated 8 seconds ago

Light Rain
Light Rain Mist
39.6 °F
Feels Like 40 °F
N
2.5
Wind Variable Wind from NNW
Gusts 4.9 mph

Today
High -- | Low -- °F
--% Chance of Precip.
Yesterday
High -- | Low -- °F
Precip. -- in
Pressure 30.01 in
Visibility 6.0 miles
Clouds Mostly Cloudy 800 ft
Mostly Cloudy 1300 ft
Overcast 2200 ft
Windchill 40 °F
Dew Point 39 °F
Humidity 99%
Rainfall 0.00 in
Snow Depth Not available.
7:14 AM 6:03 PM
Waning Crescent, 2% visible
SPECI KSAV 070844Z AUTO 35013KT 6SM -RA BR BKN008 BKN013 OVC022 04/02 A3001 RMK AO2 P0008 T00390022 TSNO
Pressure 30.01 in
Visibility 6.0 miles
Clouds Mostly Cloudy 800 ft
Mostly Cloudy 1300 ft
Overcast 2200 ft
Windchill 40 °F
Dew Point 39 °F
Humidity 99%
Rainfall 0.00 in
Snow Depth Not available.
7:14 AM 6:03 PM
Waning Crescent, 2% visible
SPECI KSAV 070844Z AUTO 35013KT 6SM -RA BR BKN008 BKN013 OVC022 04/02 A3001 RMK AO2 P0008 T00390022 TSNO

10-Day Weather Forecast

Almanac

Astronomy

Feb. 07, 2016 Rise Set
Actual Time
Civil Twilight
Nautical Twilight
Astronomical Twilight
Moon
Length of Visible Light
Length of Day
Tomorrow will be .
, % of the Moon is Illuminated

Today's Extremes

State Highs State Lows

Community

WunderPhotos

Upload Photos

1,891,171 photos uploaded!

WunderBlog® & News

Nearby

Air Quality

  Air Quality AQ Index Pollutant
Not available.

Snow Depth

Station Depth Elevation

Earthquake Activity

City Distance Mag. Time & Date
Minimum magnitude displayed is 2.5.

Coastal Water Temperatures

Place Temperature

Stations

Nearby Weather Stations

Station Location Temp. Windchill Dew Point Humidity Wind Precip. Elev Updated Type
                   

Watches & Warnings

Flood Warning
Issued: 8:52 PM EST Feb. 6, 2016 – National Weather Service

The Flood Warning continues for
the Ogeechee river near Eden.
* At 8 PM Saturday the stage was 12.5 feet.
* Flood stage is 11.0 feet.
* Minor flooding is occurring.
* Forecast, the river will continue rising to near 13.3 feet by
Tuesday evening. Additional rises may be possible thereafter.
* At 14.0 feet, several homes and camps near the river are surrounded
by water.


Lat... Lon 3246 8160 3252 8152 3227 8140 3208 8133
          3206 8143 3223 8150